createdAt,value
2022-08-29T00:00:26.642Z,99781.69
2022-08-29T00:01:30.388Z,99780.56
2022-08-29T00:02:32.950Z,99782.47
2022-08-29T00:03:36.595Z,99777.63
2022-08-29T00:04:39.255Z,99773.84
2022-08-29T00:05:42.012Z,99774.00
2022-08-29T00:06:44.643Z,99778.09
2022-08-29T00:07:46.732Z,99771.81
2022-08-29T00:08:49.188Z,99782.75
2022-08-29T00:09:51.258Z,99769.28
2022-08-29T00:10:55.875Z,99775.88
2022-08-29T00:11:58.595Z,99775.41
2022-08-29T00:13:00.856Z,99765.38
2022-08-29T00:14:03.442Z,99774.31
2022-08-29T00:15:08.333Z,99768.81
2022-08-29T00:16:10.546Z,99768.03
2022-08-29T00:17:12.688Z,99757.22
2022-08-29T00:18:17.376Z,99759.75
2022-08-29T00:19:19.701Z,99754.72
2022-08-29T00:20:34.110Z,99760.81
2022-08-29T00:21:36.951Z,99761.16
2022-08-29T00:22:39.444Z,99756.44
2022-08-29T00:23:44.001Z,99758.97
2022-08-29T00:24:46.257Z,99748.56
2022-08-29T00:25:49.084Z,99747.00
2022-08-29T00:26:51.190Z,99747.00
2022-08-29T00:27:53.786Z,99748.56
2022-08-29T00:28:56.146Z,99739.50
2022-08-29T00:29:58.207Z,99735.41
2022-08-29T00:31:00.330Z,99734.16
2022-08-29T00:32:02.643Z,99732.13
2022-08-29T00:33:05.018Z,99723.50
2022-08-29T00:34:07.164Z,99723.81
2022-08-29T00:35:23.547Z,99721.00
2022-08-29T00:36:26.512Z,99725.41
2022-08-29T00:37:32.967Z,99721.00
2022-08-29T00:38:35.844Z,99726.94
2022-08-29T00:39:40.323Z,99722.56
2022-08-29T00:40:51.884Z,99721.47
2022-08-29T00:41:54.348Z,99713.47
2022-08-29T00:42:56.676Z,99707.69
2022-08-29T00:43:58.789Z,99707.38
2022-08-29T00:45:01.071Z,99713.16
2022-08-29T00:46:23.331Z,99710.66
2022-08-29T00:47:33.241Z,99712.22
2022-08-29T00:48:38.540Z,99710.34
2022-08-29T00:49:45.536Z,99706.56
2022-08-29T00:50:52.816Z,99710.63
2022-08-29T00:51:57.812Z,99700.44
2022-08-29T00:53:01.935Z,99704.06
2022-08-29T00:54:09.935Z,99696.22
2022-08-29T00:55:17.223Z,99693.88
2022-08-29T00:56:19.881Z,99683.84
2022-08-29T00:57:23.883Z,99694.53
2022-08-29T00:58:31.742Z,99683.41
2022-08-29T00:59:39.668Z,99688.56
2022-08-29T01:00:44.008Z,99683.69
2022-08-29T01:01:46.767Z,99684.66
2022-08-29T01:02:49.130Z,99684.00
2022-08-29T01:03:52.492Z,99681.97
2022-08-29T01:04:54.747Z,99681.50
2022-08-29T01:05:57.139Z,99674.28
2022-08-29T01:07:00.365Z,99675.38
2022-08-29T01:08:05.343Z,99672.72
2022-08-29T01:09:08.920Z,99671.47
2022-08-29T01:10:32.503Z,99672.09
2022-08-29T01:11:53.696Z,99669.28
2022-08-29T01:12:55.742Z,99667.41
2022-08-29T01:14:00.093Z,99662.69
2022-08-29T01:15:07.692Z,99669.28
2022-08-29T01:16:12.030Z,99664.75
2022-08-29T01:17:26.049Z,99658.94
2022-08-29T01:18:32.637Z,99658.31
2022-08-29T01:19:55.176Z,99655.03
2022-08-29T01:21:24.655Z,99652.34
2022-08-29T01:22:57.046Z,99653.59
2022-08-29T01:24:05.616Z,99652.03
2022-08-29T01:25:14.056Z,99651.72
2022-08-29T01:26:16.710Z,99656.41
2022-08-29T01:27:22.120Z,99647.97
2022-08-29T01:28:35.208Z,99643.44
2022-08-29T01:29:37.622Z,99642.34
2022-08-29T01:31:02.548Z,99641.38
2022-08-29T01:32:05.651Z,99643.72
2022-08-29T01:33:08.054Z,99635.75
2022-08-29T01:34:13.278Z,99639.66
2022-08-29T01:35:15.827Z,99643.84
2022-08-29T01:36:23.123Z,99641.50
2022-08-29T01:37:31.266Z,99636.63
2022-08-29T01:38:33.895Z,99645.75
2022-08-29T01:39:39.071Z,99640.09
2022-08-29T01:40:41.436Z,99638.56
2022-08-29T01:41:43.844Z,99631.94
2022-08-29T01:42:46.815Z,99629.28
2022-08-29T01:43:52.395Z,99629.13
2022-08-29T01:44:59.645Z,99631.47
2022-08-29T01:46:01.754Z,99633.50
2022-08-29T01:47:07.585Z,99623.81
2022-08-29T01:48:09.669Z,99625.38
2022-08-29T01:49:13.316Z,99626.31
2022-08-29T01:50:15.976Z,99622.44
2022-08-29T01:51:18.430Z,99617.41
2022-08-29T01:52:21.355Z,99633.38
2022-08-29T01:53:25.778Z,99640.69
2022-08-29T01:54:28.695Z,99624.75
2022-08-29T01:55:30.947Z,99618.66
2022-08-29T01:56:35.240Z,99617.28
2022-08-29T01:57:39.430Z,99607.19
2022-08-29T01:58:42.928Z,99610.94
2022-08-29T01:59:45.408Z,99614.69
2022-08-29T02:00:47.610Z,99614.06
2022-08-29T02:01:57.400Z,99609.34
2022-08-29T02:03:01.413Z,99618.59
2022-08-29T02:04:05.260Z,99611.88
2022-08-29T02:05:07.627Z,99608.59
2022-08-29T02:06:10.565Z,99609.34
2022-08-29T02:07:13.031Z,99611.59
2022-08-29T02:08:15.726Z,99609.34
2022-08-29T02:09:17.979Z,99602.97
2022-08-29T02:10:20.189Z,99610.78
2022-08-29T02:11:23.397Z,99611.22
2022-08-29T02:12:25.631Z,99609.34
2022-08-29T02:13:28.434Z,99606.53
2022-08-29T02:14:30.760Z,99600.91
2022-08-29T02:15:33.093Z,99611.06
2022-08-29T02:16:35.926Z,99606.81
2022-08-29T02:17:38.706Z,99593.84
2022-08-29T02:18:43.563Z,99594.78
2022-08-29T02:19:46.183Z,99593.06
2022-08-29T02:20:48.415Z,99589.94
2022-08-29T02:21:50.890Z,99594.78
2022-08-29T02:22:53.013Z,99599.75
2022-08-29T02:23:57.763Z,99608.53
2022-08-29T02:24:59.784Z,99604.00
2022-08-29T02:26:02.044Z,99601.53
2022-08-29T02:27:09.541Z,99589.34
2022-08-29T02:28:13.698Z,99590.94
2022-08-29T02:29:15.980Z,99582.28
2022-08-29T02:30:19.857Z,99591.22
2022-08-29T02:31:24.356Z,99583.34
2022-08-29T02:32:26.718Z,99584.94
2022-08-29T02:33:29.973Z,99598.84
2022-08-29T02:34:36.665Z,99599.75
2022-08-29T02:35:42.882Z,99613.06
2022-08-29T02:36:45.378Z,99609.69
2022-08-29T02:37:51.194Z,99600.25
2022-08-29T02:38:54.192Z,99589.94
2022-08-29T02:39:56.302Z,99591.97
2022-08-29T02:41:01.310Z,99599.03
2022-08-29T02:42:06.207Z,99599.66
2022-08-29T02:43:08.835Z,99596.84
2022-08-29T02:44:12.900Z,99577.13
2022-08-29T02:45:15.118Z,99588.84
2022-08-29T02:46:19.196Z,99593.41
2022-08-29T02:47:21.458Z,99587.44
2022-08-29T02:48:23.786Z,99585.88
2022-08-29T02:49:25.960Z,99578.69
2022-08-29T02:50:28.255Z,99585.06
2022-08-29T02:51:32.549Z,99584.00
2022-08-29T02:52:37.304Z,99573.06
2022-08-29T02:53:39.640Z,99572.91
2022-08-29T02:54:42.617Z,99570.84
2022-08-29T02:55:47.244Z,99562.28
2022-08-29T02:56:49.605Z,99560.22
2022-08-29T02:57:53.249Z,99568.03
2022-08-29T02:58:56.794Z,99568.81
2022-08-29T02:59:58.855Z,99567.09
2022-08-29T03:01:00.972Z,99564.94
2022-08-29T03:02:12.034Z,99555.97
2022-08-29T03:03:14.466Z,99564.91
2022-08-29T03:04:18.031Z,99570.09
2022-08-29T03:05:27.831Z,99567.41
2022-08-29T03:06:29.927Z,99575.69
2022-08-29T03:07:34.351Z,99562.41
2022-08-29T03:08:38.357Z,99564.28
2022-08-29T03:09:43.419Z,99566.19
2022-08-29T03:10:48.021Z,99565.41
2022-08-29T03:11:52.797Z,99574.63
2022-08-29T03:12:55.595Z,99579.00
2022-08-29T03:13:58.130Z,99561.16
2022-08-29T03:15:00.548Z,99574.31
2022-08-29T03:16:03.737Z,99568.41
2022-08-29T03:17:08.903Z,99569.31
2022-08-29T03:18:11.961Z,99563.25
2022-08-29T03:19:14.002Z,99565.88
2022-08-29T03:20:18.979Z,99563.06
2022-08-29T03:21:23.851Z,99554.00
2022-08-29T03:22:26.474Z,99564.66
2022-08-29T03:23:28.775Z,99566.84
2022-08-29T03:24:30.947Z,99581.84
2022-08-29T03:25:33.088Z,99586.09
2022-08-29T03:26:37.500Z,99578.72
2022-08-29T03:27:43.550Z,99578.72
2022-08-29T03:28:45.830Z,99577.81
2022-08-29T03:29:47.884Z,99571.22
2022-08-29T03:30:50.023Z,99573.09
2022-08-29T03:31:52.088Z,99568.44
2022-08-29T03:32:54.847Z,99559.50
2022-08-29T03:33:57.279Z,99546.81
2022-08-29T03:34:59.531Z,99548.91
2022-08-29T03:36:02.065Z,99536.50
2022-08-29T03:37:06.888Z,99547.44
2022-08-29T03:38:11.694Z,99545.22
2022-08-29T03:39:14.019Z,99553.38
2022-08-29T03:40:17.000Z,99555.88
2022-08-29T03:41:22.789Z,99559.19
2022-08-29T03:42:24.938Z,99562.28
2022-08-29T03:43:27.086Z,99569.69
2022-08-29T03:44:29.154Z,99574.03
2022-08-29T03:45:31.404Z,99566.22
2022-08-29T03:46:33.586Z,99563.56
2022-08-29T03:47:36.130Z,99554.19
2022-08-29T03:48:38.288Z,99557.06
2022-08-29T03:49:40.528Z,99562.19
2022-08-29T03:50:43.400Z,99560.63
2022-08-29T03:51:45.555Z,99556.25
2022-08-29T03:52:48.446Z,99555.94
2022-08-29T03:53:50.575Z,99545.28
2022-08-29T03:54:53.424Z,99547.78
2022-08-29T03:55:57.737Z,99535.25
2022-08-29T03:56:59.822Z,99539.31
2022-08-29T03:58:02.043Z,99537.59
2022-08-29T03:59:04.566Z,99546.19
2022-08-29T04:00:17.099Z,99540.84
2022-08-29T04:01:28.834Z,99530.97
2022-08-29T04:02:30.945Z,99525.84
2022-08-29T04:03:33.052Z,99520.38
2022-08-29T04:04:54.151Z,99516.00
2022-08-29T04:05:56.271Z,99523.06
2022-08-29T04:06:58.901Z,99522.00
2022-08-29T04:08:01.148Z,99521.97
2022-08-29T04:09:03.241Z,99519.94
2022-08-29T04:10:08.376Z,99531.19
2022-08-29T04:11:11.923Z,99514.63
2022-08-29T04:12:14.379Z,99511.50
2022-08-29T04:13:17.151Z,99510.22
2022-08-29T04:14:21.540Z,99506.63
2022-08-29T04:15:25.228Z,99503.16
2022-08-29T04:16:31.348Z,99496.09
2022-08-29T04:17:34.338Z,99498.16
2022-08-29T04:18:36.666Z,99486.72
2022-08-29T04:19:39.869Z,99490.19
2022-08-29T04:20:46.059Z,99480.66
2022-08-29T04:21:49.154Z,99486.72
2022-08-29T04:22:52.339Z,99478.13
2022-08-29T04:23:55.104Z,99473.56
2022-08-29T04:24:57.305Z,99475.13
2022-08-29T04:26:19.134Z,99477.34
2022-08-29T04:27:21.750Z,99478.56
2022-08-29T04:28:26.668Z,99474.63
2022-08-29T04:29:34.698Z,99476.38
2022-08-29T04:30:38.517Z,99480.69
2022-08-29T04:31:42.546Z,99483.38
2022-08-29T04:32:45.221Z,99477.00
2022-08-29T04:33:48.932Z,99484.34
2022-08-29T04:34:50.929Z,99481.38
2022-08-29T04:35:53.425Z,99482.44
2022-08-29T04:36:55.547Z,99470.97
2022-08-29T04:37:57.869Z,99464.22
2022-08-29T04:39:00.145Z,99465.53
2022-08-29T04:40:02.668Z,99462.16
2022-08-29T04:41:07.005Z,99471.66
2022-08-29T04:42:09.166Z,99477.88
2022-08-29T04:43:12.737Z,99476.81
2022-08-29T04:44:14.857Z,99479.47
2022-08-29T04:45:20.837Z,99481.59
2022-08-29T04:46:26.208Z,99477.69
2022-08-29T04:47:28.357Z,99473.81
2022-08-29T04:48:30.436Z,99480.91
2022-08-29T04:49:32.579Z,99484.53
2022-08-29T04:50:34.819Z,99484.91
2022-08-29T04:51:37.215Z,99479.84
2022-08-29T04:52:39.488Z,99469.22
2022-08-29T04:53:42.978Z,99477.41
2022-08-29T04:54:45.306Z,99482.38
2022-08-29T04:55:58.317Z,99473.22
2022-08-29T04:57:03.420Z,99469.50
2022-08-29T04:58:07.166Z,99465.59
2022-08-29T04:59:13.180Z,99483.63
2022-08-29T05:00:19.749Z,99484.41
2022-08-29T05:01:24.457Z,99483.31
2022-08-29T05:02:27.724Z,99484.84
2022-08-29T05:03:34.684Z,99499.97
2022-08-29T05:04:36.701Z,99519.69
2022-08-29T05:05:40.080Z,99510.44
2022-08-29T05:06:44.836Z,99500.72
2022-08-29T05:07:47.201Z,99497.91
2022-08-29T05:08:58.889Z,99502.53
2022-08-29T05:10:11.995Z,99501.53
2022-08-29T05:11:22.650Z,99498.97
2022-08-29T05:12:30.138Z,99503.88
2022-08-29T05:13:32.452Z,99503.69
2022-08-29T05:14:36.911Z,99495.50
2022-08-29T05:15:39.550Z,99485.53
2022-08-29T05:16:42.968Z,99484.00
2022-08-29T05:17:45.462Z,99491.94
2022-08-29T05:18:47.960Z,99499.59
2022-08-29T05:19:50.768Z,99496.28
2022-08-29T05:20:52.855Z,99470.78
2022-08-29T05:21:58.154Z,99480.19
2022-08-29T05:23:00.643Z,99474.28
2022-08-29T05:24:09.295Z,99488.59
2022-08-29T05:25:17.993Z,99492.38
2022-08-29T05:26:22.455Z,99484.69
2022-08-29T05:27:25.007Z,99488.41
2022-08-29T05:28:30.907Z,99479.84
2022-08-29T05:29:33.440Z,99490.06
2022-08-29T05:30:38.156Z,99487.50
2022-08-29T05:31:44.366Z,99474.38
2022-08-29T05:32:47.690Z,99466.56
2022-08-29T05:33:53.425Z,99464.44
2022-08-29T05:34:56.268Z,99466.50
2022-08-29T05:35:59.076Z,99477.69
2022-08-29T05:37:02.477Z,99483.50
2022-08-29T05:38:09.176Z,99480.38
2022-08-29T05:39:11.563Z,99487.59
2022-08-29T05:40:16.591Z,99485.31
2022-08-29T05:41:19.309Z,99489.75
2022-08-29T05:42:23.072Z,99486.59
2022-08-29T05:43:25.438Z,99485.88
2022-08-29T05:44:34.319Z,99476.38
2022-08-29T05:45:38.463Z,99472.59
2022-08-29T05:46:40.778Z,99455.28
2022-08-29T05:47:43.134Z,99458.19
2022-08-29T05:48:45.935Z,99461.25
2022-08-29T05:49:49.134Z,99451.38
2022-08-29T05:50:51.290Z,99464.50
2022-08-29T05:51:55.311Z,99472.97
2022-08-29T05:52:57.689Z,99477.13
2022-08-29T05:54:00.020Z,99460.09
2022-08-29T05:55:02.212Z,99466.19
2022-08-29T05:56:04.348Z,99468.94
2022-08-29T05:57:08.532Z,99470.38
2022-08-29T05:58:12.407Z,99465.56
2022-08-29T05:59:16.246Z,99474.09
2022-08-29T06:00:18.698Z,99466.34
2022-08-29T06:01:26.304Z,99464.47
2022-08-29T06:02:29.007Z,99459.34
2022-08-29T06:03:31.724Z,99470.59
2022-08-29T06:04:34.002Z,99461.88
2022-08-29T06:05:36.353Z,99465.22
2022-08-29T06:06:41.400Z,99462.91
2022-08-29T06:07:45.641Z,99465.66
2022-08-29T06:08:48.019Z,99450.84
2022-08-29T06:09:53.146Z,99465.91
2022-08-29T06:10:55.244Z,99469.47
2022-08-29T06:11:58.598Z,99466.56
2022-08-29T06:13:00.666Z,99458.31
2022-08-29T06:14:02.976Z,99451.78
2022-08-29T06:15:06.308Z,99448.50
2022-08-29T06:16:12.604Z,99448.88
2022-08-29T06:17:14.778Z,99453.00
2022-08-29T06:18:17.095Z,99468.06
2022-08-29T06:19:19.799Z,99449.59
2022-08-29T06:20:21.954Z,99457.47
2022-08-29T06:21:24.325Z,99463.63
2022-08-29T06:22:26.570Z,99459.41
2022-08-29T06:23:28.632Z,99465.03
2022-08-29T06:24:33.473Z,99468.31
2022-08-29T06:25:39.607Z,99474.09
2022-08-29T06:26:45.202Z,99454.97
2022-08-29T06:27:47.419Z,99459.72
2022-08-29T06:28:50.255Z,99464.88
2022-08-29T06:29:52.488Z,99464.31
2022-08-29T06:30:54.711Z,99470.34
2022-08-29T06:31:58.036Z,99476.53
2022-08-29T06:33:01.298Z,99474.19
2022-08-29T06:34:05.439Z,99478.34
2022-08-29T06:35:07.972Z,99473.69
2022-08-29T06:36:10.859Z,99477.06
2022-08-29T06:37:13.119Z,99478.53
2022-08-29T06:38:15.840Z,99460.69
2022-08-29T06:39:19.708Z,99454.41
2022-08-29T06:40:21.924Z,99454.72
2022-08-29T06:41:25.218Z,99464.22
2022-08-29T06:42:28.626Z,99453.94
2022-08-29T06:43:31.306Z,99465.25
2022-08-29T06:44:33.749Z,99457.25
2022-08-29T06:45:40.922Z,99449.25
2022-08-29T06:46:47.482Z,99456.44
2022-08-29T06:47:49.535Z,99451.94
2022-08-29T06:48:52.379Z,99453.50
2022-08-29T06:49:54.479Z,99454.13
2022-08-29T06:50:58.042Z,99454.69
2022-08-29T06:52:00.416Z,99450.63
2022-08-29T06:53:26.132Z,99455.81
2022-08-29T06:54:29.616Z,99446.13
2022-08-29T06:55:31.864Z,99447.41
2022-08-29T06:56:36.559Z,99447.03
2022-08-29T06:57:44.608Z,99456.22
2022-08-29T06:58:46.848Z,99455.63
2022-08-29T06:59:48.902Z,99452.94
2022-08-29T07:00:51.059Z,99455.09
2022-08-29T07:01:55.478Z,99448.53
2022-08-29T07:02:58.193Z,99452.19
2022-08-29T07:04:00.671Z,99449.41
2022-08-29T07:05:04.923Z,99461.22
2022-08-29T07:06:07.634Z,99456.53
2022-08-29T07:07:10.259Z,99456.94
2022-08-29T07:08:12.648Z,99459.91
2022-08-29T07:09:14.872Z,99463.75
2022-08-29T07:10:22.317Z,99455.00
2022-08-29T07:11:27.183Z,99452.47
2022-08-29T07:12:29.661Z,99446.50
2022-08-29T07:13:35.378Z,99445.88
2022-08-29T07:14:37.428Z,99440.72
2022-08-29T07:15:39.497Z,99445.06
2022-08-29T07:16:42.179Z,99445.00
2022-08-29T07:17:44.226Z,99450.25
2022-08-29T07:18:47.304Z,99447.94
2022-08-29T07:19:52.315Z,99448.13
2022-08-29T07:20:56.833Z,99450.72
2022-08-29T07:21:59.809Z,99443.69
2022-08-29T07:23:02.267Z,99447.00
2022-08-29T07:24:07.608Z,99448.34
2022-08-29T07:25:19.905Z,99460.59
2022-08-29T07:26:28.856Z,99460.38
2022-08-29T07:27:30.979Z,99459.69
2022-08-29T07:28:35.080Z,99465.84
2022-08-29T07:29:40.600Z,99461.41
2022-08-29T07:30:45.069Z,99463.06
2022-08-29T07:31:48.201Z,99466.41
2022-08-29T07:32:51.087Z,99463.06
2022-08-29T07:33:59.691Z,99461.50
2022-08-29T07:35:07.768Z,99466.56
2022-08-29T07:36:12.508Z,99468.50
2022-08-29T07:37:14.878Z,99451.38
2022-08-29T07:38:17.117Z,99471.03
2022-08-29T07:39:20.026Z,99458.63
2022-08-29T07:40:22.682Z,99459.56
2022-08-29T07:41:25.802Z,99465.31
2022-08-29T07:42:28.227Z,99459.38
2022-08-29T07:43:30.634Z,99453.16
2022-08-29T07:44:34.569Z,99448.13
2022-08-29T07:45:42.751Z,99460.31
2022-08-29T07:46:47.129Z,99453.34
2022-08-29T07:47:49.446Z,99469.22
2022-08-29T07:48:52.921Z,99466.03
2022-08-29T07:49:55.284Z,99452.97
2022-08-29T07:50:57.349Z,99454.66
2022-08-29T07:52:00.624Z,99460.78
2022-08-29T07:53:02.698Z,99452.78
2022-08-29T07:54:06.946Z,99448.06
2022-08-29T07:55:09.956Z,99452.78
2022-08-29T07:56:16.445Z,99465.66
2022-08-29T07:57:18.882Z,99448.88
2022-08-29T07:58:24.006Z,99457.63
2022-08-29T07:59:26.379Z,99457.03
2022-08-29T08:00:30.793Z,99451.75
2022-08-29T08:01:33.210Z,99456.84
2022-08-29T08:02:35.787Z,99450.72
2022-08-29T08:03:42.749Z,99455.84
2022-08-29T08:04:45.323Z,99453.56
2022-08-29T08:05:47.479Z,99451.94
2022-08-29T08:06:49.876Z,99448.03
2022-08-29T08:07:55.588Z,99451.34
2022-08-29T08:09:01.851Z,99447.03
2022-08-29T08:10:04.679Z,99454.78
2022-08-29T08:11:08.850Z,99453.91
2022-08-29T08:12:11.099Z,99458.94
2022-08-29T08:13:13.261Z,99452.75
2022-08-29T08:14:15.511Z,99452.34
2022-08-29T08:15:18.471Z,99443.75
2022-08-29T08:16:23.576Z,99452.84
2022-08-29T08:17:26.183Z,99451.13
2022-08-29T08:18:29.996Z,99450.63
2022-08-29T08:19:32.661Z,99456.44
2022-08-29T08:20:35.327Z,99447.56
2022-08-29T08:21:38.095Z,99458.47
2022-08-29T08:22:47.801Z,99447.31
2022-08-29T08:23:50.301Z,99445.09
2022-08-29T08:24:52.886Z,99459.00
2022-08-29T08:25:55.085Z,99454.69
2022-08-29T08:26:57.178Z,99457.91
2022-08-29T08:28:01.701Z,99453.03
2022-08-29T08:29:04.644Z,99444.19
2022-08-29T08:30:07.372Z,99450.06
2022-08-29T08:31:11.983Z,99466.03
2022-08-29T08:32:16.882Z,99461.25
2022-08-29T08:33:19.046Z,99451.47
2022-08-29T08:34:21.488Z,99457.94
2022-08-29T08:35:23.925Z,99450.22
2022-08-29T08:36:31.360Z,99450.06
2022-08-29T08:37:33.806Z,99453.03
2022-08-29T08:38:39.351Z,99458.50
2022-08-29T08:39:42.277Z,99454.06
2022-08-29T08:40:50.849Z,99465.88
2022-08-29T08:42:00.616Z,99463.38
2022-08-29T08:43:03.835Z,99454.66
2022-08-29T08:44:25.624Z,99442.50
2022-08-29T08:45:48.039Z,99454.50
2022-08-29T08:46:58.722Z,99454.44
2022-08-29T08:48:10.388Z,99450.63
2022-08-29T08:49:20.360Z,99462.50
2022-08-29T08:50:42.585Z,99450.66
2022-08-29T08:51:53.778Z,99464.94
2022-08-29T08:53:00.850Z,99465.41
2022-08-29T08:54:07.951Z,99454.59
2022-08-29T08:55:26.387Z,99480.13
2022-08-29T08:56:34.656Z,99462.41
2022-08-29T08:57:51.664Z,99460.78
2022-08-29T08:59:23.638Z,99456.91
2022-08-29T09:00:27.412Z,99446.41
2022-08-29T09:01:39.645Z,99465.50
2022-08-29T09:03:06.948Z,99475.94
2022-08-29T09:04:32.460Z,99468.22
2022-08-29T09:06:15.895Z,99469.00
2022-08-29T09:08:05.047Z,99457.56
2022-08-29T09:09:33.758Z,99469.00
2022-08-29T09:10:58.565Z,99463.25
2022-08-29T09:12:21.761Z,99467.66
2022-08-29T09:13:30.983Z,99476.47
2022-08-29T09:14:45.375Z,99470.56
2022-08-29T09:15:54.249Z,99465.41
2022-08-29T09:17:00.630Z,99475.78
2022-08-29T09:18:08.610Z,99471.34
2022-08-29T09:19:17.227Z,99472.84
2022-08-29T09:20:28.999Z,99466.94
2022-08-29T09:21:41.627Z,99474.47
2022-08-29T09:22:50.299Z,99481.94
2022-08-29T09:23:59.850Z,99479.91
2022-08-29T09:25:05.194Z,99473.94
2022-08-29T09:26:07.587Z,99479.66
2022-08-29T09:27:19.328Z,99486.91
2022-08-29T09:28:21.929Z,99499.72
2022-08-29T09:29:28.500Z,99481.66
2022-08-29T09:30:33.765Z,99474.22
2022-08-29T09:31:36.316Z,99469.06
2022-08-29T09:33:00.963Z,99474.72
2022-08-29T09:34:07.876Z,99474.41
2022-08-29T09:35:29.266Z,99488.97
2022-08-29T09:36:41.030Z,99477.56
2022-08-29T09:37:43.126Z,99475.00
2022-08-29T09:38:45.417Z,99474.72
2022-08-29T09:40:01.606Z,99469.03
2022-08-29T09:41:08.242Z,99470.50
2022-08-29T09:42:13.714Z,99473.13
2022-08-29T09:43:29.067Z,99475.47
2022-08-29T09:44:33.569Z,99463.25
2022-08-29T09:45:35.979Z,99462.19
2022-08-29T09:46:38.487Z,99462.66
2022-08-29T09:47:40.779Z,99477.56
2022-08-29T09:48:49.342Z,99461.00
2022-08-29T09:50:27.456Z,99456.59
2022-08-29T09:51:41.934Z,99448.53
2022-08-29T09:52:59.434Z,99452.63
2022-08-29T09:54:28.960Z,99460.94
2022-08-29T09:55:35.369Z,99479.13
2022-08-29T09:56:41.098Z,99466.97
2022-08-29T09:58:10.528Z,99455.84
2022-08-29T09:59:28.898Z,99473.19
2022-08-29T10:00:39.034Z,99455.59
2022-08-29T10:01:43.687Z,99453.00
2022-08-29T10:02:58.961Z,99441.56
2022-08-29T10:04:04.087Z,99438.97
2022-08-29T10:05:13.182Z,99446.75
2022-08-29T10:06:20.296Z,99445.97
2022-08-29T10:07:25.320Z,99451.16
2022-08-29T10:08:36.716Z,99450.38
2022-08-29T10:09:39.083Z,99460.25
2022-08-29T10:10:52.499Z,99464.66
2022-08-29T10:12:08.442Z,99455.56
2022-08-29T10:13:23.287Z,99464.13
2022-08-29T10:14:54.746Z,99473.94
2022-08-29T10:16:36.002Z,99457.59
2022-08-29T10:18:21.415Z,99492.53
2022-08-29T10:19:33.120Z,99458.88
2022-08-29T10:20:40.869Z,99449.56
2022-08-29T10:22:04.107Z,99465.84
2022-08-29T10:23:39.575Z,99459.31
2022-08-29T10:25:08.974Z,99447.72
2022-08-29T10:27:00.874Z,99452.84
2022-08-29T10:28:06.017Z,99446.16
2022-08-29T10:29:14.630Z,99456.81
2022-08-29T10:30:20.554Z,99470.53
2022-08-29T10:31:39.775Z,99463.84
2022-08-29T10:32:57.966Z,99473.13
2022-08-29T10:34:12.147Z,99464.31
2022-08-29T10:35:23.095Z,99490.00
2022-08-29T10:36:33.698Z,99464.13
2022-08-29T10:37:51.948Z,99472.91
2022-08-29T10:39:13.968Z,99489.66
2022-08-29T10:40:43.562Z,99482.44
2022-08-29T10:42:09.959Z,99478.25
2022-08-29T10:43:20.092Z,99466.34
2022-08-29T10:44:24.858Z,99477.16
2022-08-29T10:45:45.305Z,99494.72
2022-08-29T10:47:00.425Z,99471.47
2022-08-29T10:48:16.178Z,99471.47
2022-08-29T10:49:33.801Z,99483.91
2022-08-29T10:50:44.558Z,99485.59
2022-08-29T10:51:57.865Z,99469.59
2022-08-29T10:53:02.757Z,99465.75
2022-08-29T10:54:31.595Z,99481.44
2022-08-29T10:55:39.862Z,99478.13
2022-08-29T10:56:46.640Z,99476.00
2022-08-29T10:58:03.756Z,99478.56
2022-08-29T10:59:19.005Z,99477.56
2022-08-29T11:00:40.468Z,99475.72
2022-08-29T11:01:59.394Z,99474.00
2022-08-29T11:03:23.155Z,99475.78
2022-08-29T11:04:38.310Z,99474.75
2022-08-29T11:05:49.181Z,99480.13
2022-08-29T11:07:04.790Z,99478.81
2022-08-29T11:08:33.626Z,99477.56
2022-08-29T11:09:57.497Z,99473.16
2022-08-29T11:11:01.644Z,99488.69
2022-08-29T11:12:31.146Z,99487.41
2022-08-29T11:13:42.453Z,99506.66
2022-08-29T11:14:57.021Z,99495.09
2022-08-29T11:16:07.514Z,99486.06
2022-08-29T11:17:14.036Z,99484.28
2022-08-29T11:18:29.065Z,99486.47
2022-08-29T11:19:39.359Z,99484.22
2022-08-29T11:20:48.038Z,99483.72
2022-08-29T11:21:55.512Z,99501.22
2022-08-29T11:23:27.780Z,99505.13
2022-08-29T11:24:34.867Z,99488.88
2022-08-29T11:25:42.188Z,99491.72
2022-08-29T11:26:44.222Z,99507.28
2022-08-29T11:28:12.315Z,99501.22
2022-08-29T11:29:36.549Z,99497.94
2022-08-29T11:30:55.989Z,99497.88
2022-08-29T11:32:06.551Z,99497.09
2022-08-29T11:33:19.391Z,99507.41
2022-08-29T11:34:45.946Z,99496.69
2022-08-29T11:36:12.351Z,99510.16
2022-08-29T11:37:40.026Z,99499.78
2022-08-29T11:38:47.886Z,99512.34
2022-08-29T11:40:05.302Z,99516.41
2022-08-29T11:41:27.531Z,99525.13
2022-08-29T11:42:52.691Z,99528.72
2022-08-29T11:44:11.896Z,99514.81
2022-08-29T11:45:36.725Z,99514.25
2022-08-29T11:46:52.898Z,99528.78
2022-08-29T11:48:01.315Z,99526.25
2022-08-29T11:49:21.818Z,99514.59
2022-08-29T11:50:35.666Z,99541.41
2022-08-29T11:51:41.987Z,99522.38
2022-08-29T11:52:57.352Z,99521.91
2022-08-29T11:54:25.417Z,99524.84
2022-08-29T11:55:34.767Z,99536.75
2022-08-29T11:56:37.124Z,99525.56
2022-08-29T11:57:47.636Z,99526.09
2022-08-29T11:58:58.073Z,99525.09
2022-08-29T12:00:01.517Z,99519.16
2022-08-29T12:01:32.241Z,99536.47
2022-08-29T12:02:35.038Z,99511.41
2022-08-29T12:03:37.438Z,99523.56
2022-08-29T12:04:58.480Z,99531.84
2022-08-29T12:06:35.348Z,99522.56
2022-08-29T12:07:49.213Z,99530.53
2022-08-29T12:09:13.215Z,99535.97
2022-08-29T12:10:26.766Z,99535.66
2022-08-29T12:11:59.811Z,99541.06
2022-08-29T12:13:07.097Z,99534.84
2022-08-29T12:14:09.306Z,99545.00
2022-08-29T12:15:49.587Z,99534.28
2022-08-29T12:16:53.845Z,99542.31
2022-08-29T12:18:03.283Z,99551.56
2022-08-29T12:19:08.316Z,99542.03
2022-08-29T12:20:13.912Z,99554.47
2022-08-29T12:21:33.823Z,99546.09
2022-08-29T12:23:00.412Z,99539.09
2022-08-29T12:24:04.645Z,99542.72
2022-08-29T12:25:27.352Z,99526.81
2022-08-29T12:26:45.630Z,99534.44
2022-08-29T12:27:56.379Z,99535.06
2022-08-29T12:29:00.608Z,99527.00
2022-08-29T12:30:02.953Z,99538.56
2022-08-29T12:31:20.331Z,99534.22
2022-08-29T12:32:49.404Z,99540.97
2022-08-29T12:34:03.492Z,99527.81
2022-08-29T12:35:28.290Z,99539.38
2022-08-29T12:36:53.022Z,99539.00
2022-08-29T12:38:13.027Z,99537.34
2022-08-29T12:39:44.981Z,99537.91
2022-08-29T12:40:58.860Z,99542.59
2022-08-29T12:42:09.711Z,99541.78
2022-08-29T12:43:25.232Z,99537.97
2022-08-29T12:44:34.297Z,99536.75
2022-08-29T12:45:36.839Z,99557.16
2022-08-29T12:46:43.386Z,99540.00
2022-08-29T12:47:50.914Z,99535.88
2022-08-29T12:49:18.921Z,99538.22
2022-08-29T12:50:37.014Z,99542.00
2022-08-29T12:51:42.578Z,99540.00
2022-08-29T12:53:00.005Z,99534.28
2022-08-29T12:54:02.512Z,99535.66
2022-08-29T12:55:33.972Z,99533.59
2022-08-29T12:56:43.051Z,99536.44
2022-08-29T12:57:47.579Z,99536.91
2022-08-29T12:58:52.672Z,99536.91
2022-08-29T12:59:56.367Z,99534.88
2022-08-29T13:00:58.785Z,99534.44
2022-08-29T13:02:01.997Z,99540.72
2022-08-29T13:03:09.647Z,99532.50
2022-08-29T13:04:20.133Z,99540.19
2022-08-29T13:05:28.854Z,99535.06
2022-08-29T13:06:34.008Z,99537.59
2022-08-29T13:07:36.413Z,99538.16
2022-08-29T13:08:38.553Z,99533.84
2022-08-29T13:09:49.210Z,99538.75
2022-08-29T13:11:03.651Z,99538.72
2022-08-29T13:12:15.441Z,99529.66